createdAt,value
2023-02-06T00:04:53.114Z,80.70
2023-02-06T00:09:54.546Z,81.08
2023-02-06T00:14:56.001Z,81.32
2023-02-06T00:19:57.417Z,81.66
2023-02-06T00:24:58.863Z,82.04
2023-02-06T00:30:00.382Z,82.51
2023-02-06T00:35:01.928Z,82.99
2023-02-06T00:40:03.448Z,83.00
2023-02-06T00:45:05.892Z,82.94
2023-02-06T00:50:07.603Z,83.33
2023-02-06T00:55:09.084Z,82.95
2023-02-06T01:00:11.129Z,82.41
2023-02-06T01:05:12.563Z,82.60
2023-02-06T01:10:14.076Z,82.99
2023-02-06T01:15:15.618Z,82.25
2023-02-06T01:20:17.248Z,81.69
2023-02-06T01:25:18.780Z,81.24
2023-02-06T01:30:20.261Z,82.10
2023-02-06T01:35:21.727Z,81.77
2023-02-06T01:40:23.289Z,80.79
2023-02-06T01:45:39.912Z,81.37
2023-02-06T01:50:46.178Z,81.56
2023-02-06T01:55:49.657Z,82.53
2023-02-06T02:00:51.374Z,82.95
2023-02-06T02:05:57.166Z,82.87
2023-02-06T02:11:03.161Z,82.28
2023-02-06T02:16:20.208Z,82.27
2023-02-06T02:21:39.609Z,82.20
2023-02-06T02:32:59.697Z,82.10
2023-02-06T02:38:10.293Z,82.30
2023-02-06T02:43:28.440Z,81.65
2023-02-06T02:48:35.950Z,80.66
2023-02-06T02:53:37.506Z,80.35
2023-02-06T02:58:39.742Z,80.69
2023-02-06T03:03:44.927Z,82.03
2023-02-06T03:09:02.969Z,82.17
2023-02-06T03:14:21.998Z,81.80
2023-02-06T03:19:30.722Z,81.00
2023-02-06T03:24:38.001Z,80.60
2023-02-06T03:29:41.833Z,80.59
2023-02-06T03:34:53.679Z,80.43
2023-02-06T03:39:59.020Z,80.12
2023-02-06T03:45:06.364Z,80.70
2023-02-06T03:50:10.691Z,81.36
2023-02-06T03:55:21.718Z,82.24
2023-02-06T04:00:23.509Z,82.23
2023-02-06T04:05:25.411Z,82.07
2023-02-06T04:10:26.884Z,82.19
2023-02-06T04:15:28.356Z,82.11
2023-02-06T04:20:30.061Z,81.50
2023-02-06T04:25:31.510Z,82.21
2023-02-06T04:30:32.982Z,82.01
2023-02-06T04:35:34.633Z,81.98
2023-02-06T04:40:37.168Z,81.17
2023-02-06T04:45:38.923Z,81.20
2023-02-06T04:50:40.422Z,81.77
2023-02-06T04:55:41.842Z,81.45
2023-02-06T05:00:43.266Z,81.41
2023-02-06T05:05:45.355Z,81.92
2023-02-06T05:10:46.961Z,81.80
2023-02-06T05:15:48.676Z,82.07
2023-02-06T05:20:50.118Z,81.86
2023-02-06T05:25:51.563Z,82.30
2023-02-06T05:30:53.478Z,82.57
2023-02-06T05:36:00.505Z,82.46
2023-02-06T05:41:01.973Z,82.46
2023-02-06T05:46:03.604Z,83.18
2023-02-06T05:51:05.293Z,83.15
2023-02-06T05:56:06.902Z,83.64
2023-02-06T06:01:08.356Z,83.60
2023-02-06T06:06:09.990Z,83.69
2023-02-06T06:11:11.478Z,84.08
2023-02-06T06:16:13.011Z,84.07
2023-02-06T06:21:14.500Z,84.35
2023-02-06T06:26:16.422Z,84.74
2023-02-06T06:31:18.066Z,84.75
2023-02-06T06:36:19.814Z,84.72
2023-02-06T06:41:21.243Z,85.03
2023-02-06T06:46:22.917Z,85.03
2023-02-06T06:51:26.646Z,85.12
2023-02-06T06:56:28.292Z,85.00
2023-02-06T07:01:29.717Z,85.40
2023-02-06T07:06:31.166Z,85.73
2023-02-06T07:11:32.600Z,85.53
2023-02-06T07:16:34.043Z,85.47
2023-02-06T07:21:35.771Z,85.76
2023-02-06T07:26:37.197Z,86.07
2023-02-06T07:31:38.796Z,85.90
2023-02-06T07:36:40.274Z,85.85
2023-02-06T07:41:42.813Z,86.07
2023-02-06T07:46:47.697Z,85.84
2023-02-06T07:51:49.175Z,85.97
2023-02-06T07:56:50.596Z,86.09
2023-02-06T08:01:52.540Z,86.37
2023-02-06T08:06:53.962Z,85.89
2023-02-06T08:11:55.401Z,86.24
2023-02-06T08:16:56.865Z,85.85
2023-02-06T08:21:58.434Z,86.15
2023-02-06T08:26:59.869Z,85.88
2023-02-06T08:32:01.980Z,85.58
2023-02-06T08:37:03.935Z,85.60
2023-02-06T08:42:05.393Z,85.79
2023-02-06T08:47:10.502Z,86.09
2023-02-06T08:52:12.139Z,86.47
2023-02-06T08:57:13.623Z,86.17
2023-02-06T09:02:15.114Z,85.94
2023-02-06T09:07:17.377Z,86.23
2023-02-06T09:12:18.909Z,86.52
2023-02-06T09:17:20.460Z,86.54
2023-02-06T09:22:22.102Z,86.48
2023-02-06T09:27:23.543Z,86.58
2023-02-06T09:32:25.010Z,86.52
2023-02-06T09:37:26.438Z,86.59
2023-02-06T09:42:31.857Z,85.48
2023-02-06T09:47:37.558Z,85.80
2023-02-06T09:52:53.469Z,85.20
2023-02-06T09:58:19.241Z,85.42
2023-02-06T10:03:45.482Z,85.65
2023-02-06T10:08:59.309Z,85.58
2023-02-06T10:14:05.519Z,85.81
2023-02-06T10:19:17.681Z,85.80
2023-02-06T10:24:32.561Z,85.92
2023-02-06T10:29:36.250Z,86.70
2023-02-06T10:35:00.568Z,86.44
2023-02-06T10:40:11.519Z,87.07
2023-02-06T10:45:36.426Z,87.42
2023-02-06T10:50:44.191Z,86.81
2023-02-06T10:55:55.453Z,87.13
2023-02-06T11:00:59.280Z,87.12
2023-02-06T11:06:02.135Z,86.77
2023-02-06T11:11:20.264Z,86.80
2023-02-06T11:16:27.325Z,86.57
2023-02-06T11:21:50.816Z,86.68
2023-02-06T11:26:57.589Z,87.07
2023-02-06T11:32:01.810Z,87.76
2023-02-06T11:37:06.237Z,87.64
2023-02-06T11:42:13.512Z,87.72
2023-02-06T11:47:37.731Z,86.93
2023-02-06T11:52:41.799Z,87.16
2023-02-06T11:57:43.373Z,87.59
2023-02-06T12:02:52.101Z,87.02
2023-02-06T12:07:56.683Z,87.22
2023-02-06T12:13:06.799Z,87.98
2023-02-06T12:18:27.476Z,87.82
2023-02-06T12:23:36.375Z,87.68
2023-02-06T12:28:43.794Z,88.00
2023-02-06T12:33:54.708Z,87.94
2023-02-06T12:39:00.745Z,88.29
2023-02-06T12:44:11.365Z,87.63
2023-02-06T12:49:35.639Z,87.62
2023-02-06T12:54:53.822Z,88.33
2023-02-06T13:00:01.770Z,88.17
2023-02-06T13:05:17.308Z,87.75
2023-02-06T13:10:23.571Z,87.78
2023-02-06T13:15:36.103Z,87.51
2023-02-06T13:21:14.611Z,87.93
2023-02-06T13:26:16.496Z,87.58
2023-02-06T13:31:26.620Z,87.70
2023-02-06T13:36:44.017Z,87.72
2023-02-06T13:41:45.500Z,87.42
2023-02-06T13:47:34.660Z,87.21
2023-02-06T13:53:14.301Z,87.50
2023-02-06T13:58:45.672Z,87.46
2023-02-06T14:03:50.358Z,86.94
2023-02-06T14:09:03.704Z,87.23
2023-02-06T14:14:31.097Z,86.99
2023-02-06T14:19:54.411Z,87.15
2023-02-06T14:25:10.130Z,86.51
2023-02-06T14:30:33.086Z,86.78
2023-02-06T14:35:52.740Z,86.43
2023-02-06T14:40:56.971Z,86.43
2023-02-06T14:46:07.635Z,86.47
2023-02-06T14:51:41.890Z,86.60
2023-02-06T14:56:43.362Z,86.09
2023-02-06T15:01:48.269Z,86.29
2023-02-06T15:07:01.947Z,85.57
2023-02-06T15:12:18.220Z,85.95
2023-02-06T15:17:21.482Z,85.65
2023-02-06T15:22:27.751Z,85.14
2023-02-06T15:27:34.756Z,85.06
2023-02-06T15:32:39.852Z,84.93
2023-02-06T15:37:41.314Z,84.81
2023-02-06T15:42:43.132Z,84.89
2023-02-06T15:47:46.081Z,84.96
2023-02-06T15:52:48.140Z,85.21
2023-02-06T15:57:51.115Z,84.75
2023-02-06T16:02:56.572Z,84.85
2023-02-06T16:07:58.891Z,85.12
2023-02-06T16:13:01.906Z,86.14
2023-02-06T16:18:24.960Z,86.12
2023-02-06T16:23:30.734Z,86.08
2023-02-06T16:28:32.159Z,86.14
2023-02-06T16:33:38.357Z,85.87
2023-02-06T16:38:40.050Z,86.13
2023-02-06T16:43:42.091Z,85.68
2023-02-06T16:48:43.652Z,85.44
2023-02-06T16:53:48.113Z,85.47
2023-02-06T16:58:49.694Z,85.10
2023-02-06T17:03:52.640Z,85.46
2023-02-06T17:08:58.795Z,85.13
2023-02-06T17:14:00.242Z,84.97
2023-02-06T17:19:01.686Z,84.92
2023-02-06T17:24:03.231Z,84.74
2023-02-06T17:29:04.678Z,84.88
2023-02-06T17:34:06.245Z,84.84
2023-02-06T17:39:07.696Z,84.96
2023-02-06T17:44:09.162Z,84.65
2023-02-06T17:49:10.685Z,84.52
2023-02-06T17:54:12.492Z,84.63
2023-02-06T17:59:13.984Z,84.40
2023-02-06T18:04:19.502Z,84.50
2023-02-06T18:09:20.953Z,84.44
2023-02-06T18:14:22.394Z,84.27
2023-02-06T18:19:25.214Z,84.42
2023-02-06T18:24:26.649Z,84.33
2023-02-06T18:29:34.645Z,84.51
2023-02-06T18:34:45.397Z,84.56
2023-02-06T18:39:47.175Z,84.42
2023-02-06T18:44:48.617Z,84.40
2023-02-06T18:49:50.041Z,84.30
2023-02-06T18:54:51.496Z,84.19
2023-02-06T18:59:53.376Z,84.78
2023-02-06T19:04:57.616Z,84.44
2023-02-06T19:10:00.647Z,84.59
2023-02-06T19:15:02.100Z,85.05
2023-02-06T19:20:04.536Z,85.04
2023-02-06T19:25:10.942Z,85.15
2023-02-06T19:30:13.778Z,84.76
2023-02-06T19:35:15.488Z,84.59
2023-02-06T19:40:17.210Z,84.23
2023-02-06T19:45:18.693Z,83.84
2023-02-06T19:50:20.146Z,83.89
2023-02-06T19:55:21.578Z,83.95
2023-02-06T20:00:23.190Z,83.78
2023-02-06T20:05:27.102Z,83.88
2023-02-06T20:10:29.124Z,83.43
2023-02-06T20:15:31.945Z,84.15
2023-02-06T20:20:34.043Z,83.93
2023-02-06T20:25:38.162Z,83.88
2023-02-06T20:30:39.973Z,84.12
2023-02-06T20:35:44.677Z,83.96
2023-02-06T20:40:51.052Z,84.15
2023-02-06T20:45:52.507Z,83.63
2023-02-06T20:50:58.409Z,83.93
2023-02-06T20:55:59.859Z,83.82
2023-02-06T21:01:01.330Z,84.04
2023-02-06T21:06:02.797Z,83.89
2023-02-06T21:11:05.649Z,83.72
2023-02-06T21:16:07.260Z,83.70
2023-02-06T21:21:11.365Z,83.77
2023-02-06T21:26:13.884Z,83.66
2023-02-06T21:31:18.812Z,83.86
2023-02-06T21:36:21.116Z,83.56
2023-02-06T21:41:22.777Z,83.93
2023-02-06T21:46:24.494Z,83.79
2023-02-06T21:51:26.512Z,83.92
2023-02-06T21:56:28.375Z,83.94
2023-02-06T22:01:33.342Z,84.00
2023-02-06T22:06:37.568Z,83.57
2023-02-06T22:11:39.735Z,83.47
2023-02-06T22:16:41.624Z,83.19
2023-02-06T22:21:43.138Z,83.22
2023-02-06T22:26:45.164Z,83.44
2023-02-06T22:31:48.311Z,83.93
2023-02-06T22:36:51.129Z,83.75
2023-02-06T22:41:52.638Z,83.83
2023-02-06T22:46:54.147Z,83.99
2023-02-06T22:51:57.900Z,83.79
2023-02-06T22:56:59.328Z,83.72
2023-02-06T23:02:00.809Z,83.64
2023-02-06T23:07:02.373Z,83.59
2023-02-06T23:12:04.197Z,82.79
2023-02-06T23:17:05.633Z,82.90
2023-02-06T23:22:07.889Z,83.27
2023-02-06T23:27:09.384Z,83.61
2023-02-06T23:32:11.023Z,83.60
2023-02-06T23:37:12.504Z,83.62
2023-02-06T23:42:13.966Z,82.75
2023-02-06T23:47:15.384Z,83.32
2023-02-06T23:52:16.856Z,82.07
2023-02-06T23:57:18.359Z,80.55
